createdAt,value
2019-04-06T00:01:23.404Z,99.90
2019-04-06T00:03:53.456Z,99.90
2019-04-06T00:06:23.496Z,99.90
2019-04-06T00:08:53.807Z,99.90
2019-04-06T00:11:24.093Z,99.90
2019-04-06T00:13:54.412Z,99.90
2019-04-06T00:16:24.920Z,99.90
2019-04-06T00:18:55.208Z,99.90
2019-04-06T00:21:25.307Z,99.90
2019-04-06T00:23:55.623Z,99.90
2019-04-06T00:26:25.661Z,99.90
2019-04-06T00:28:55.801Z,99.90
2019-04-06T00:31:35.648Z,99.90
2019-04-06T00:34:05.701Z,99.90
2019-04-06T00:36:35.968Z,99.90
2019-04-06T00:39:06.780Z,99.90
2019-04-06T00:41:37.088Z,99.90
2019-04-06T00:44:07.620Z,99.90
2019-04-06T00:46:37.652Z,99.90
2019-04-06T00:49:08.056Z,99.90
2019-04-06T00:51:38.098Z,99.90
2019-04-06T00:54:08.119Z,99.90
2019-04-06T00:56:38.304Z,99.90
2019-04-06T00:59:08.698Z,99.90
2019-04-06T01:01:39.073Z,99.90
2019-04-06T01:04:09.351Z,99.90
2019-04-06T01:06:39.876Z,99.90
2019-04-06T01:09:10.405Z,99.90
2019-04-06T01:11:40.694Z,99.90
2019-04-06T01:14:10.721Z,99.90
2019-04-06T01:16:40.784Z,99.90
2019-04-06T01:19:11.793Z,99.90
2019-04-06T01:21:41.867Z,99.90
2019-04-06T01:24:11.898Z,99.90
2019-04-06T01:26:42.232Z,99.90
2019-04-06T01:29:12.512Z,99.90
2019-04-06T01:31:42.732Z,99.90
2019-04-06T01:34:12.831Z,99.90
2019-04-06T01:36:42.960Z,99.90
2019-04-06T01:39:13.450Z,99.90
2019-04-06T01:41:43.732Z,99.90
2019-04-06T01:44:13.880Z,99.90
2019-04-06T01:46:44.153Z,99.90
2019-04-06T01:49:14.727Z,99.90
2019-04-06T01:51:45.464Z,99.90
2019-04-06T01:54:15.869Z,99.90
2019-04-06T01:56:45.999Z,99.90
2019-04-06T01:59:16.336Z,99.90
2019-04-06T02:01:52.577Z,99.90
2019-04-06T02:04:22.648Z,99.90
2019-04-06T02:06:52.732Z,99.90
2019-04-06T02:09:22.772Z,99.90
2019-04-06T02:11:53.269Z,99.90
2019-04-06T02:14:23.572Z,99.90
2019-04-06T02:16:53.861Z,99.90
2019-04-06T02:19:23.912Z,99.90
2019-04-06T02:21:54.308Z,99.90
2019-04-06T02:24:24.615Z,99.90
2019-04-06T02:26:54.656Z,99.90
2019-04-06T02:29:24.712Z,99.90
2019-04-06T02:32:15.430Z,99.90
2019-04-06T02:35:22.918Z,99.90
2019-04-06T02:38:06.016Z,99.90
2019-04-06T02:40:55.565Z,99.90
2019-04-06T02:43:28.494Z,99.90
2019-04-06T02:45:59.538Z,99.90
2019-04-06T02:48:29.605Z,99.90
2019-04-06T02:50:59.953Z,99.90
2019-04-06T02:53:30.544Z,99.90
2019-04-06T02:56:00.589Z,99.90
2019-04-06T02:58:30.697Z,99.90
2019-04-06T03:01:01.213Z,99.90
2019-04-06T03:03:31.396Z,99.90
2019-04-06T03:06:02.068Z,99.90
2019-04-06T03:08:32.447Z,99.90
2019-04-06T03:11:02.617Z,99.90
2019-04-06T03:13:32.818Z,99.90
2019-04-06T03:16:03.104Z,99.90
2019-04-06T03:18:33.444Z,99.90
2019-04-06T03:21:03.792Z,99.90
2019-04-06T03:23:33.844Z,99.90
2019-04-06T03:26:04.397Z,99.90
2019-04-06T03:28:34.705Z,99.90
2019-04-06T03:31:04.921Z,99.90
2019-04-06T03:33:35.405Z,99.90
2019-04-06T03:36:05.682Z,99.90
2019-04-06T03:38:36.069Z,99.90
2019-04-06T03:41:06.411Z,99.90
2019-04-06T03:43:36.993Z,99.90
2019-04-06T03:46:07.293Z,99.90
2019-04-06T03:48:37.796Z,99.90
2019-04-06T03:51:07.898Z,99.90
2019-04-06T03:53:37.966Z,99.90
2019-04-06T03:56:08.053Z,99.90
2019-04-06T03:58:38.332Z,99.90
2019-04-06T04:01:08.882Z,99.90
2019-04-06T04:03:40.382Z,99.90
2019-04-06T04:06:10.625Z,99.90
2019-04-06T04:08:40.820Z,99.90
2019-04-06T04:11:11.161Z,99.90
2019-04-06T04:13:41.425Z,99.90
2019-04-06T04:16:11.775Z,99.90
2019-04-06T04:18:41.838Z,99.90
2019-04-06T04:21:11.901Z,99.90
2019-04-06T04:23:42.308Z,99.90
2019-04-06T04:26:12.849Z,99.90
2019-04-06T04:28:43.125Z,99.90
2019-04-06T04:31:13.177Z,99.90
2019-04-06T04:33:43.203Z,99.90
2019-04-06T04:36:13.477Z,99.90
2019-04-06T04:38:43.721Z,99.90
2019-04-06T04:41:13.780Z,99.90
2019-04-06T04:43:43.824Z,99.90
2019-04-06T04:46:14.068Z,99.90
2019-04-06T04:48:44.685Z,99.90
2019-04-06T04:51:15.198Z,99.90
2019-04-06T04:53:45.243Z,99.90
2019-04-06T04:56:15.972Z,99.90
2019-04-06T04:58:46.113Z,99.90
2019-04-06T05:01:16.152Z,99.90
2019-04-06T05:03:46.675Z,99.90
2019-04-06T05:06:16.715Z,99.90
2019-04-06T05:08:46.980Z,99.90
2019-04-06T05:11:17.024Z,99.90
2019-04-06T05:13:47.055Z,99.90
2019-04-06T05:16:17.332Z,99.90
2019-04-06T05:18:47.360Z,99.90
2019-04-06T05:21:17.480Z,99.90
2019-04-06T05:23:47.861Z,99.90
2019-04-06T05:26:18.173Z,99.90
2019-04-06T05:28:48.191Z,99.90
2019-04-06T05:31:18.240Z,99.90
2019-04-06T05:33:48.517Z,99.90
2019-04-06T05:36:18.796Z,99.90
2019-04-06T05:38:49.439Z,99.90
2019-04-06T05:41:19.951Z,99.90
2019-04-06T05:43:49.984Z,99.90
2019-04-06T05:46:20.040Z,99.90
2019-04-06T05:48:50.542Z,99.90
2019-04-06T05:51:20.683Z,99.90
2019-04-06T05:53:50.980Z,99.90
2019-04-06T05:56:21.273Z,99.90
2019-04-06T05:58:51.532Z,99.90
2019-04-06T06:01:21.929Z,99.90
2019-04-06T06:03:52.110Z,99.90
2019-04-06T06:06:22.717Z,99.90
2019-04-06T06:08:52.797Z,99.90
2019-04-06T06:11:24.051Z,99.90
2019-04-06T06:13:54.100Z,99.90
2019-04-06T06:16:24.159Z,99.90
2019-04-06T06:18:54.246Z,99.90
2019-04-06T06:21:24.356Z,99.90
2019-04-06T06:23:54.541Z,99.90
2019-04-06T06:26:24.614Z,99.90
2019-04-06T06:28:55.096Z,99.90
2019-04-06T06:31:25.610Z,99.90
2019-04-06T06:33:55.673Z,99.90
2019-04-06T06:36:26.164Z,99.90
2019-04-06T06:38:56.477Z,99.90
2019-04-06T06:41:26.761Z,99.90
2019-04-06T06:43:57.035Z,99.90
2019-04-06T06:46:27.315Z,99.90
2019-04-06T06:48:57.381Z,99.90
2019-04-06T06:51:27.890Z,99.90
2019-04-06T06:53:57.999Z,99.90
2019-04-06T06:56:28.308Z,99.90
2019-04-06T06:58:59.316Z,99.90
2019-04-06T07:01:29.604Z,99.90
2019-04-06T07:03:59.672Z,99.90
2019-04-06T07:06:30.428Z,99.90
2019-04-06T07:09:00.756Z,99.90
2019-04-06T07:11:32.660Z,99.90
2019-04-06T07:14:02.768Z,99.90
2019-04-06T07:16:33.471Z,99.90
2019-04-06T07:19:03.513Z,99.90
2019-04-06T07:21:33.619Z,99.90
2019-04-06T07:24:03.818Z,99.90
2019-04-06T07:26:33.895Z,99.90
2019-04-06T07:29:04.486Z,99.90
2019-04-06T07:31:34.869Z,99.90
2019-04-06T07:34:05.204Z,99.90
2019-04-06T07:36:35.730Z,99.90
2019-04-06T07:39:06.474Z,99.90
2019-04-06T07:41:37.580Z,99.90
2019-04-06T07:44:08.940Z,99.90
2019-04-06T07:46:39.020Z,99.90
2019-04-06T07:49:10.359Z,99.90
2019-04-06T07:51:41.425Z,99.90
2019-04-06T07:54:12.120Z,99.90
2019-04-06T07:56:42.429Z,99.90
2019-04-06T07:59:12.470Z,99.90
2019-04-06T08:01:42.836Z,99.90
2019-04-06T08:04:13.572Z,99.90
2019-04-06T08:06:45.057Z,99.90
2019-04-06T08:09:15.622Z,99.90
2019-04-06T08:11:45.924Z,99.90
2019-04-06T08:14:16.006Z,99.90
2019-04-06T08:16:46.053Z,99.90
2019-04-06T08:19:18.475Z,99.90
2019-04-06T08:21:48.744Z,99.90
2019-04-06T08:24:19.030Z,99.90
2019-04-06T08:26:50.384Z,99.90
2019-04-06T08:29:20.684Z,99.90
2019-04-06T08:31:51.207Z,99.90
2019-04-06T08:34:21.536Z,99.90
2019-04-06T08:36:51.604Z,99.90
2019-04-06T08:39:21.676Z,99.90
2019-04-06T08:41:51.934Z,99.90
2019-04-06T08:44:22.539Z,99.90
2019-04-06T08:46:52.667Z,99.90
2019-04-06T08:49:22.947Z,99.90
2019-04-06T08:51:53.464Z,99.90
2019-04-06T08:54:24.303Z,99.90
2019-04-06T08:56:55.011Z,99.90
2019-04-06T08:59:25.353Z,99.90
2019-04-06T09:01:55.724Z,99.90
2019-04-06T09:04:26.190Z,99.90
2019-04-06T09:06:56.812Z,99.90
2019-04-06T09:09:26.868Z,99.90
2019-04-06T09:11:57.143Z,99.90
2019-04-06T09:14:28.241Z,99.90
2019-04-06T09:16:58.652Z,99.90
2019-04-06T09:19:28.754Z,99.90
2019-04-06T09:21:58.847Z,99.90
2019-04-06T09:24:29.166Z,99.90
2019-04-06T09:26:59.411Z,99.90
2019-04-06T09:29:29.429Z,99.90
2019-04-06T09:31:59.801Z,99.90
2019-04-06T09:34:31.173Z,99.90
2019-04-06T09:37:01.906Z,99.90
2019-04-06T09:39:32.590Z,99.90
2019-04-06T09:42:02.644Z,99.90
2019-04-06T09:44:41.064Z,99.90
2019-04-06T09:47:19.723Z,99.90
2019-04-06T09:49:58.119Z,99.90
2019-04-06T09:52:47.352Z,99.90
2019-04-06T09:55:38.266Z,99.90
2019-04-06T09:58:33.434Z,99.90
2019-04-06T10:01:16.844Z,99.90
2019-04-06T10:04:01.041Z,99.90
2019-04-06T10:06:47.628Z,99.90
2019-04-06T10:09:45.868Z,99.90
2019-04-06T10:12:38.952Z,99.90
2019-04-06T10:15:40.698Z,99.90
2019-04-06T10:18:28.742Z,99.90
2019-04-06T10:21:18.472Z,99.90
2019-04-06T10:24:19.688Z,99.90
2019-04-06T10:27:06.797Z,99.90
2019-04-06T10:29:53.204Z,99.90
2019-04-06T10:32:42.292Z,99.90
2019-04-06T10:35:30.060Z,99.90
2019-04-06T10:38:31.454Z,99.80
2019-04-06T10:41:08.417Z,99.90
2019-04-06T10:44:10.732Z,99.80
2019-04-06T10:46:49.993Z,98.80
2019-04-06T10:49:41.468Z,99.30
2019-04-06T10:52:29.356Z,99.00
2019-04-06T10:55:14.856Z,99.60
2019-04-06T10:58:00.222Z,99.50
2019-04-06T11:00:49.184Z,99.10
2019-04-06T11:03:31.000Z,99.20
2019-04-06T11:06:26.244Z,98.10
2019-04-06T11:09:10.557Z,97.70
2019-04-06T11:11:52.955Z,98.30
2019-04-06T11:14:36.600Z,98.00
2019-04-06T11:17:29.239Z,97.70
2019-04-06T11:20:06.653Z,97.40
2019-04-06T11:22:45.984Z,97.40
2019-04-06T11:25:24.648Z,97.60
2019-04-06T11:28:08.853Z,97.50
2019-04-06T11:30:49.096Z,96.00
2019-04-06T11:33:29.476Z,96.60
2019-04-06T11:36:12.254Z,96.70
2019-04-06T11:39:00.398Z,97.30
2019-04-06T11:41:48.844Z,92.70
2019-04-06T11:44:41.912Z,91.40
2019-04-06T11:47:34.372Z,87.10
2019-04-06T11:50:15.505Z,83.50
2019-04-06T11:53:10.134Z,82.50
2019-04-06T11:55:58.446Z,82.20
2019-04-06T11:58:39.069Z,81.40
2019-04-06T12:01:26.687Z,80.00
2019-04-06T12:04:02.341Z,80.30
2019-04-06T12:06:43.772Z,74.80
2019-04-06T12:09:30.211Z,74.70
2019-04-06T12:12:19.420Z,74.60
2019-04-06T12:15:01.622Z,73.40
2019-04-06T12:17:52.090Z,73.50
2019-04-06T12:20:33.017Z,73.60
2019-04-06T12:23:28.453Z,72.20
2019-04-06T12:26:20.684Z,72.70
2019-04-06T12:29:00.144Z,72.10
2019-04-06T12:31:39.320Z,70.80
2019-04-06T12:34:35.291Z,71.50
2019-04-06T12:37:23.530Z,73.10
2019-04-06T12:40:04.476Z,75.80
2019-04-06T12:43:02.996Z,74.60
2019-04-06T12:45:55.659Z,73.80
2019-04-06T12:48:43.741Z,72.10
2019-04-06T12:51:20.605Z,73.00
2019-04-06T12:54:00.046Z,73.40
2019-04-06T12:56:48.294Z,72.00
2019-04-06T12:59:38.065Z,73.90
2019-04-06T13:02:26.280Z,71.60
2019-04-06T13:05:15.298Z,71.60
2019-04-06T13:08:02.212Z,73.90
2019-04-06T13:10:51.589Z,68.70
2019-04-06T13:13:50.117Z,69.30
2019-04-06T13:16:26.584Z,68.40
2019-04-06T13:19:16.461Z,67.30
2019-04-06T13:21:55.388Z,68.80
2019-04-06T13:24:31.473Z,67.50
2019-04-06T13:27:10.960Z,69.00
2019-04-06T13:30:18.692Z,67.80
2019-04-06T13:32:58.860Z,66.70
2019-04-06T13:35:44.190Z,68.10
2019-04-06T13:38:48.862Z,65.70
2019-04-06T13:41:31.803Z,65.80
2019-04-06T13:44:21.391Z,66.50
2019-04-06T13:47:00.071Z,64.00
2019-04-06T13:49:49.260Z,63.90
2019-04-06T13:52:24.520Z,64.70
2019-04-06T13:55:13.298Z,65.60
2019-04-06T13:58:02.989Z,66.60
2019-04-06T14:00:42.653Z,65.00
2019-04-06T14:03:31.122Z,67.70
2019-04-06T14:06:19.578Z,66.60
2019-04-06T14:09:02.541Z,68.80
2019-04-06T14:11:51.018Z,66.50
2019-04-06T14:14:31.460Z,67.80
2019-04-06T14:17:14.836Z,65.90
2019-04-06T14:20:03.272Z,65.70
2019-04-06T14:22:48.986Z,65.90
2019-04-06T14:25:33.384Z,67.80
2019-04-06T14:28:21.289Z,67.40
2019-04-06T14:31:03.109Z,64.20
2019-04-06T14:33:45.120Z,64.80
2019-04-06T14:36:29.763Z,62.90
2019-04-06T14:39:17.993Z,62.10
2019-04-06T14:42:06.228Z,63.60
2019-04-06T14:44:55.811Z,64.20
2019-04-06T14:47:48.467Z,65.70
2019-04-06T14:50:36.296Z,66.60
2019-04-06T14:53:25.794Z,68.00
2019-04-06T14:56:21.226Z,68.40
2019-04-06T14:59:22.398Z,65.80
2019-04-06T15:02:10.456Z,65.70
2019-04-06T15:04:58.957Z,66.80
2019-04-06T15:07:47.990Z,67.40
2019-04-06T15:10:35.828Z,65.60
2019-04-06T15:13:18.075Z,64.50
2019-04-06T15:16:09.564Z,63.90
2019-04-06T15:19:05.534Z,62.20
2019-04-06T15:21:55.469Z,59.90
2019-04-06T15:24:44.051Z,60.00
2019-04-06T15:27:21.712Z,59.40
2019-04-06T15:30:00.338Z,59.20
2019-04-06T15:32:44.999Z,59.50
2019-04-06T15:35:40.757Z,59.90
2019-04-06T15:38:21.807Z,60.10
2019-04-06T15:40:58.020Z,62.00
2019-04-06T15:43:41.148Z,62.10
2019-04-06T15:46:18.081Z,62.10
2019-04-06T15:49:06.849Z,60.60
2019-04-06T15:51:48.497Z,60.90
2019-04-06T15:54:36.604Z,60.40
2019-04-06T15:57:21.205Z,61.60
2019-04-06T16:00:28.852Z,62.40
2019-04-06T16:03:15.522Z,64.00
2019-04-06T16:06:07.260Z,63.70
2019-04-06T16:09:07.443Z,62.90
2019-04-06T16:11:46.032Z,62.00
2019-04-06T16:14:35.864Z,61.70
2019-04-06T16:17:14.438Z,62.50
2019-04-06T16:20:07.292Z,63.60
2019-04-06T16:22:46.075Z,63.70
2019-04-06T16:25:31.911Z,63.50
2019-04-06T16:28:08.051Z,64.80
2019-04-06T16:30:44.155Z,64.40
2019-04-06T16:33:27.226Z,64.30
2019-04-06T16:36:18.043Z,64.70
2019-04-06T16:39:06.160Z,65.00
2019-04-06T16:41:44.544Z,66.00
2019-04-06T16:44:28.160Z,66.70
2019-04-06T16:47:26.840Z,66.70
2019-04-06T16:50:11.121Z,66.60
2019-04-06T16:53:06.726Z,67.30
2019-04-06T16:55:48.798Z,67.30
2019-04-06T16:58:39.920Z,68.20
2019-04-06T17:01:41.662Z,69.30
2019-04-06T17:04:25.087Z,69.40
2019-04-06T17:07:13.065Z,69.60
2019-04-06T17:10:18.215Z,69.70
2019-04-06T17:12:58.424Z,69.90
2019-04-06T17:15:50.299Z,70.10
2019-04-06T17:18:34.272Z,70.00
2019-04-06T17:21:19.356Z,70.50
2019-04-06T17:23:55.156Z,70.40
2019-04-06T17:26:32.493Z,70.60
2019-04-06T17:29:21.914Z,70.90
2019-04-06T17:32:04.246Z,71.00
2019-04-06T17:34:59.937Z,70.90
2019-04-06T17:37:35.751Z,70.80
2019-04-06T17:40:19.866Z,71.00
2019-04-06T17:42:59.746Z,70.90
2019-04-06T17:45:42.802Z,71.80
2019-04-06T17:48:19.382Z,71.50
2019-04-06T17:51:01.451Z,72.00
2019-04-06T17:53:45.400Z,71.70
2019-04-06T17:56:35.170Z,72.10
2019-04-06T17:59:23.741Z,72.60
2019-04-06T18:02:12.189Z,72.90
2019-04-06T18:05:11.047Z,73.80
2019-04-06T18:07:56.989Z,72.90
2019-04-06T18:10:52.803Z,73.20
2019-04-06T18:13:30.177Z,73.40
2019-04-06T18:16:00.324Z,73.90
2019-04-06T18:18:30.646Z,74.40
2019-04-06T18:21:00.948Z,74.70
2019-04-06T18:23:31.256Z,75.00
2019-04-06T18:26:01.918Z,75.20
2019-04-06T18:28:32.198Z,74.70
2019-04-06T18:31:09.240Z,74.40
2019-04-06T18:33:40.190Z,74.70
2019-04-06T18:36:10.857Z,75.80
2019-04-06T18:38:47.753Z,75.30
2019-04-06T18:41:18.620Z,75.80
2019-04-06T18:43:48.916Z,76.50
2019-04-06T18:46:19.928Z,76.40
2019-04-06T18:48:50.271Z,77.30
2019-04-06T18:51:20.725Z,77.20
2019-04-06T18:53:51.398Z,77.10
2019-04-06T18:56:21.547Z,77.60
2019-04-06T18:58:52.858Z,78.90
2019-04-06T19:01:23.657Z,79.60
2019-04-06T19:03:54.193Z,80.00
2019-04-06T19:06:24.356Z,80.80
2019-04-06T19:08:55.067Z,82.00
2019-04-06T19:11:26.491Z,81.80
2019-04-06T19:13:56.941Z,81.50
2019-04-06T19:16:27.362Z,81.70
2019-04-06T19:18:57.703Z,82.70
2019-04-06T19:21:30.358Z,82.70
2019-04-06T19:24:00.691Z,82.90
2019-04-06T19:26:31.256Z,82.70
2019-04-06T19:29:01.704Z,83.50
2019-04-06T19:31:31.780Z,83.80
2019-04-06T19:34:02.309Z,84.20
2019-04-06T19:36:33.061Z,84.40
2019-04-06T19:39:04.252Z,84.40
2019-04-06T19:41:35.361Z,84.60
2019-04-06T19:44:05.742Z,85.00
2019-04-06T19:46:36.289Z,85.20
2019-04-06T19:49:07.493Z,85.50
2019-04-06T19:51:37.916Z,85.90
2019-04-06T19:54:08.348Z,86.30
2019-04-06T19:56:38.625Z,86.40
2019-04-06T19:59:08.808Z,86.30
2019-04-06T20:01:39.955Z,86.90
2019-04-06T20:04:10.171Z,87.20
2019-04-06T20:06:41.058Z,87.70
2019-04-06T20:09:11.703Z,87.50
2019-04-06T20:11:42.170Z,87.60
2019-04-06T20:14:12.342Z,88.20
2019-04-06T20:16:43.113Z,88.40
2019-04-06T20:19:13.463Z,89.00
2019-04-06T20:21:43.637Z,89.30
2019-04-06T20:24:18.070Z,89.50
2019-04-06T20:26:48.671Z,89.70
2019-04-06T20:29:19.345Z,90.20
2019-04-06T20:31:50.157Z,90.00
2019-04-06T20:34:20.601Z,90.30
2019-04-06T20:36:51.123Z,90.70
2019-04-06T20:39:21.921Z,90.90
2019-04-06T20:41:52.989Z,91.30
2019-04-06T20:44:23.378Z,91.70
2019-04-06T20:46:54.155Z,91.90
2019-04-06T20:49:24.739Z,92.80
2019-04-06T20:51:54.855Z,93.60
2019-04-06T20:54:25.164Z,93.70
2019-04-06T20:56:58.169Z,95.10
2019-04-06T20:59:27.178Z,94.80
2019-04-06T21:01:57.835Z,94.70
2019-04-06T21:04:28.188Z,95.50
2019-04-06T21:06:59.936Z,96.50
2019-04-06T21:09:30.619Z,95.00
2019-04-06T21:12:01.347Z,96.50
2019-04-06T21:14:31.897Z,96.70
2019-04-06T21:17:02.571Z,96.90
2019-04-06T21:19:33.905Z,97.10
2019-04-06T21:22:04.339Z,96.80
2019-04-06T21:24:35.008Z,96.00
2019-04-06T21:27:05.396Z,96.10
2019-04-06T21:29:36.425Z,96.10
2019-04-06T21:32:07.330Z,96.10
2019-04-06T21:34:38.296Z,96.00
2019-04-06T21:37:08.857Z,96.00
2019-04-06T21:39:39.786Z,96.40
2019-04-06T21:42:10.724Z,95.90
2019-04-06T21:44:41.127Z,96.90
2019-04-06T21:47:12.148Z,96.80
2019-04-06T21:49:42.547Z,96.80
2019-04-06T21:52:12.970Z,96.60
2019-04-06T21:54:43.016Z,96.80
2019-04-06T21:57:13.319Z,97.40
2019-04-06T21:59:44.058Z,97.30
2019-04-06T22:02:14.808Z,97.40
2019-04-06T22:04:45.333Z,97.90
2019-04-06T22:07:16.510Z,98.20
2019-04-06T22:09:46.851Z,98.50
2019-04-06T22:12:17.442Z,98.60
2019-04-06T22:14:47.517Z,98.80
2019-04-06T22:17:17.609Z,99.00
2019-04-06T22:19:48.245Z,99.10
2019-04-06T22:22:18.880Z,99.00
2019-04-06T22:24:50.124Z,99.00
2019-04-06T22:27:21.181Z,98.90
2019-04-06T22:29:51.350Z,99.10
2019-04-06T22:32:21.715Z,99.20
2019-04-06T22:34:52.063Z,99.40
2019-04-06T22:37:22.249Z,99.60
2019-04-06T22:39:52.563Z,99.80
2019-04-06T22:42:23.137Z,99.90
2019-04-06T22:44:53.636Z,99.90
2019-04-06T22:47:24.407Z,99.90
2019-04-06T22:49:54.705Z,99.90
2019-04-06T22:52:25.117Z,99.90
2019-04-06T22:54:55.872Z,99.90
2019-04-06T22:57:26.197Z,99.90
2019-04-06T22:59:56.388Z,99.90
2019-04-06T23:02:28.400Z,99.90
2019-04-06T23:05:07.251Z,99.90
2019-04-06T23:07:37.911Z,99.90
2019-04-06T23:10:08.340Z,99.90
2019-04-06T23:12:39.380Z,99.90
2019-04-06T23:15:11.605Z,99.90
2019-04-06T23:17:42.089Z,99.90
2019-04-06T23:20:12.660Z,99.90
2019-04-06T23:22:43.684Z,99.90
2019-04-06T23:25:14.996Z,99.90
2019-04-06T23:27:45.658Z,99.90
2019-04-06T23:30:16.060Z,99.90
2019-04-06T23:32:46.590Z,99.90
2019-04-06T23:35:17.252Z,99.90
2019-04-06T23:37:48.275Z,99.90
2019-04-06T23:40:18.699Z,99.90
2019-04-06T23:42:49.196Z,99.90
2019-04-06T23:45:19.625Z,99.90
2019-04-06T23:47:50.048Z,99.90
2019-04-06T23:50:20.427Z,99.90
2019-04-06T23:52:50.524Z,99.90
2019-04-06T23:55:21.273Z,99.90
2019-04-06T23:57:52.333Z,99.90
